sensor_id;sensor_type;location;lat;lon;timestamp;pressure;altitude;pressure_sealevel;temperature;humidity
39265;BME280;42646;51.910;7.724;2023-12-14T00:01:30;100105.13;;;6.61;100.00
39265;BME280;42646;51.910;7.724;2023-12-14T00:03:58;100108.88;;;6.58;100.00
39265;BME280;42646;51.910;7.724;2023-12-14T00:06:25;100121.22;;;6.58;100.00
39265;BME280;42646;51.910;7.724;2023-12-14T00:08:54;100110.78;;;6.56;100.00
39265;BME280;42646;51.910;7.724;2023-12-14T00:11:22;100114.53;;;6.54;100.00
39265;BME280;42646;51.910;7.724;2023-12-14T00:13:50;100126.19;;;6.51;100.00
39265;BME280;42646;51.910;7.724;2023-12-14T00:16:17;100131.47;;;6.51;100.00
39265;BME280;42646;51.910;7.724;2023-12-14T00:18:45;100126.31;;;6.50;100.00
39265;BME280;42646;51.910;7.724;2023-12-14T00:21:12;100132.31;;;6.52;100.00
39265;BME280;42646;51.910;7.724;2023-12-14T00:23:40;100137.84;;;6.49;100.00
39265;BME280;42646;51.910;7.724;2023-12-14T00:26:09;100151.19;;;6.47;100.00
39265;BME280;42646;51.910;7.724;2023-12-14T00:28:37;100145.91;;;6.47;100.00
39265;BME280;42646;51.910;7.724;2023-12-14T00:31:05;100147.09;;;6.43;100.00
39265;BME280;42646;51.910;7.724;2023-12-14T00:33:33;100151.44;;;6.44;100.00
39265;BME280;42646;51.910;7.724;2023-12-14T00:36:00;100161.28;;;6.42;100.00
39265;BME280;42646;51.910;7.724;2023-12-14T00:38:28;100161.78;;;6.36;100.00
39265;BME280;42646;51.910;7.724;2023-12-14T00:40:56;100161.53;;;6.39;100.00
39265;BME280;42646;51.910;7.724;2023-12-14T00:43:25;100163.59;;;6.35;100.00
39265;BME280;42646;51.910;7.724;2023-12-14T00:45:52;100161.88;;;6.34;100.00
39265;BME280;42646;51.910;7.724;2023-12-14T00:48:20;100169.09;;;6.32;100.00
39265;BME280;42646;51.910;7.724;2023-12-14T00:50:48;100173.69;;;6.30;100.00
39265;BME280;42646;51.910;7.724;2023-12-14T00:53:16;100177.28;;;6.29;100.00
39265;BME280;42646;51.910;7.724;2023-12-14T00:55:44;100189.06;;;6.25;100.00
39265;BME280;42646;51.910;7.724;2023-12-14T00:58:12;100191.44;;;6.28;100.00
39265;BME280;42646;51.910;7.724;2023-12-14T01:00:41;100200.81;;;6.21;100.00
39265;BME280;42646;51.910;7.724;2023-12-14T01:03:09;100210.31;;;6.24;100.00
39265;BME280;42646;51.910;7.724;2023-12-14T01:05:37;100211.03;;;6.26;100.00
39265;BME280;42646;51.910;7.724;2023-12-14T01:08:05;100210.66;;;6.19;100.00
39265;BME280;42646;51.910;7.724;2023-12-14T01:10:33;100219.56;;;6.18;100.00
39265;BME280;42646;51.910;7.724;2023-12-14T01:13:00;100223.88;;;6.19;100.00
39265;BME280;42646;51.910;7.724;2023-12-14T01:15:28;100223.88;;;6.19;100.00
39265;BME280;42646;51.910;7.724;2023-12-14T01:17:57;100226.53;;;6.19;100.00
39265;BME280;42646;51.910;7.724;2023-12-14T01:20:25;100239.72;;;6.19;100.00
39265;BME280;42646;51.910;7.724;2023-12-14T01:22:53;100241.53;;;6.19;100.00
39265;BME280;42646;51.910;7.724;2023-12-14T01:25:21;100250.28;;;6.19;100.00
39265;BME280;42646;51.910;7.724;2023-12-14T01:27:48;100257.59;;;6.15;100.00
39265;BME280;42646;51.910;7.724;2023-12-14T01:30:16;100255.09;;;6.14;100.00
39265;BME280;42646;51.910;7.724;2023-12-14T01:32:44;100256.88;;;6.13;100.00
39265;BME280;42646;51.910;7.724;2023-12-14T01:35:13;100258.91;;;6.10;100.00
39265;BME280;42646;51.910;7.724;2023-12-14T01:37:41;100275.59;;;6.10;100.00
39265;BME280;42646;51.910;7.724;2023-12-14T01:40:09;100276.56;;;6.09;100.00
39265;BME280;42646;51.910;7.724;2023-12-14T01:42:37;100288.34;;;6.05;100.00
39265;BME280;42646;51.910;7.724;2023-12-14T01:45:05;100294.69;;;6.03;100.00
39265;BME280;42646;51.910;7.724;2023-12-14T01:47:33;100291.09;;;6.04;100.00
39265;BME280;42646;51.910;7.724;2023-12-14T01:50:01;100304.16;;;5.94;100.00
39265;BME280;42646;51.910;7.724;2023-12-14T01:52:30;100307.53;;;5.96;100.00
39265;BME280;42646;51.910;7.724;2023-12-14T01:54:58;100312.94;;;5.95;100.00
39265;BME280;42646;51.910;7.724;2023-12-14T01:57:26;100321.06;;;5.92;100.00
39265;BME280;42646;51.910;7.724;2023-12-14T01:59:54;100323.69;;;5.92;100.00
39265;BME280;42646;51.910;7.724;2023-12-14T02:02:21;100318.44;;;5.92;100.00
39265;BME280;42646;51.910;7.724;2023-12-14T02:04:49;100321.06;;;5.92;100.00
39265;BME280;42646;51.910;7.724;2023-12-14T02:07:17;100324.75;;;5.89;100.00
39265;BME280;42646;51.910;7.724;2023-12-14T02:09:46;100330.16;;;5.87;100.00
39265;BME280;42646;51.910;7.724;2023-12-14T02:12:13;100335.31;;;5.89;100.00
39265;BME280;42646;51.910;7.724;2023-12-14T02:14:41;100336.38;;;5.86;100.00
39265;BME280;42646;51.910;7.724;2023-12-14T02:17:09;100340.94;;;5.84;100.00
39265;BME280;42646;51.910;7.724;2023-12-14T02:19:36;100348.88;;;5.84;100.00
39265;BME280;42646;51.910;7.724;2023-12-14T02:22:04;100357.97;;;5.80;100.00
39265;BME280;42646;51.910;7.724;2023-12-14T02:24:33;100360.00;;;5.77;100.00
39265;BME280;42646;51.910;7.724;2023-12-14T02:27:01;100371.53;;;5.76;100.00
39265;BME280;42646;51.910;7.724;2023-12-14T02:29:30;100373.31;;;5.75;100.00
39265;BME280;42646;51.910;7.724;2023-12-14T02:31:57;100377.63;;;5.76;100.00
39265;BME280;42646;51.910;7.724;2023-12-14T02:34:25;100372.44;;;5.75;100.00
39265;BME280;42646;51.910;7.724;2023-12-14T02:36:53;100375.09;;;5.75;100.00
39265;BME280;42646;51.910;7.724;2023-12-14T02:39:21;100383.25;;;5.72;100.00
39265;BME280;42646;51.910;7.724;2023-12-14T02:41:50;100382.53;;;5.70;100.00
39265;BME280;42646;51.910;7.724;2023-12-14T02:44:17;100395.72;;;5.70;100.00
39265;BME280;42646;51.910;7.724;2023-12-14T02:46:45;100389.59;;;5.69;100.00
39265;BME280;42646;51.910;7.724;2023-12-14T02:49:12;100390.53;;;5.68;100.00
39265;BME280;42646;51.910;7.724;2023-12-14T02:51:40;100398.47;;;5.68;100.00
39265;BME280;42646;51.910;7.724;2023-12-14T02:54:08;100395.94;;;5.67;100.00
39265;BME280;42646;51.910;7.724;2023-12-14T02:56:35;100409.03;;;5.68;100.00
39265;BME280;42646;51.910;7.724;2023-12-14T02:59:04;100401.09;;;5.68;100.00
39265;BME280;42646;51.910;7.724;2023-12-14T03:01:32;100404.56;;;5.69;100.00
39265;BME280;42646;51.910;7.724;2023-12-14T03:04:00;100403.03;;;5.66;100.00
39265;BME280;42646;51.910;7.724;2023-12-14T03:06:27;100410.22;;;5.64;100.00
39265;BME280;42646;51.910;7.724;2023-12-14T03:08:55;100420.88;;;5.62;100.00
39265;BME280;42646;51.910;7.724;2023-12-14T03:11:23;100420.28;;;5.59;100.00
39265;BME280;42646;51.910;7.724;2023-12-14T03:13:52;100425.53;;;5.59;100.00
39265;BME280;42646;51.910;7.724;2023-12-14T03:16:21;100426.50;;;5.58;100.00
39265;BME280;42646;51.910;7.724;2023-12-14T03:18:49;100430.94;;;5.57;100.00
39265;BME280;42646;51.910;7.724;2023-12-14T03:21:19;100433.59;;;5.57;100.00
39265;BME280;42646;51.910;7.724;2023-12-14T03:23:47;100438.84;;;5.57;100.00
39265;BME280;42646;51.910;7.724;2023-12-14T03:26:15;100443.25;;;5.57;100.00
39265;BME280;42646;51.910;7.724;2023-12-14T03:28:42;100447.69;;;5.56;100.00
39265;BME280;42646;51.910;7.724;2023-12-14T03:31:11;100452.13;;;5.56;100.00
39265;BME280;42646;51.910;7.724;2023-12-14T03:33:42;100446.97;;;5.54;100.00
39265;BME280;42646;51.910;7.724;2023-12-14T03:36:10;100449.50;;;5.56;100.00
39265;BME280;42646;51.910;7.724;2023-12-14T03:38:38;100451.53;;;5.52;100.00
39265;BME280;42646;51.910;7.724;2023-12-14T03:41:05;100458.63;;;5.52;100.00
39265;BME280;42646;51.910;7.724;2023-12-14T03:43:33;100464.81;;;5.51;100.00
39265;BME280;42646;51.910;7.724;2023-12-14T03:46:01;100473.38;;;5.54;100.00
39265;BME280;42646;51.910;7.724;2023-12-14T03:48:28;100472.13;;;5.47;100.00
39265;BME280;42646;51.910;7.724;2023-12-14T03:50:57;100475.81;;;5.45;100.00
39265;BME280;42646;51.910;7.724;2023-12-14T03:53:25;100474.97;;;5.44;100.00
39265;BME280;42646;51.910;7.724;2023-12-14T03:55:53;100485.53;;;5.44;100.00
39265;BME280;42646;51.910;7.724;2023-12-14T03:58:22;100481.19;;;5.43;100.00
39265;BME280;42646;51.910;7.724;2023-12-14T04:00:49;100486.72;;;5.40;100.00
39265;BME280;42646;51.910;7.724;2023-12-14T04:03:17;100496.50;;;5.38;100.00
39265;BME280;42646;51.910;7.724;2023-12-14T04:05:45;100512.34;;;5.38;100.00
39265;BME280;42646;51.910;7.724;2023-12-14T04:08:14;100511.50;;;5.38;100.00
39265;BME280;42646;51.910;7.724;2023-12-14T04:10:41;100520.16;;;5.40;100.00
39265;BME280;42646;51.910;7.724;2023-12-14T04:13:09;100525.66;;;5.36;100.00
39265;BME280;42646;51.910;7.724;2023-12-14T04:15:37;100530.91;;;5.36;100.00
39265;BME280;42646;51.910;7.724;2023-12-14T04:18:06;100536.50;;;5.32;100.00
39265;BME280;42646;51.910;7.724;2023-12-14T04:20:34;100534.00;;;5.30;100.00
39265;BME280;42646;51.910;7.724;2023-12-14T04:23:02;100542.75;;;5.31;100.00
39265;BME280;42646;51.910;7.724;2023-12-14T04:25:31;100556.88;;;5.30;100.00
39265;BME280;42646;51.910;7.724;2023-12-14T04:27:58;100553.41;;;5.29;100.00
39265;BME280;42646;51.910;7.724;2023-12-14T04:30:26;100557.72;;;5.30;100.00
39265;BME280;42646;51.910;7.724;2023-12-14T04:32:54;100555.94;;;5.31;100.00
39265;BME280;42646;51.910;7.724;2023-12-14T04:35:21;100558.69;;;5.29;100.00
39265;BME280;42646;51.910;7.724;2023-12-14T04:37:49;100564.06;;;5.28;100.00
39265;BME280;42646;51.910;7.724;2023-12-14T04:40:17;100572.81;;;5.28;100.00
39265;BME280;42646;51.910;7.724;2023-12-14T04:42:46;100575.47;;;5.28;100.00
39265;BME280;42646;51.910;7.724;2023-12-14T04:45:14;100583.25;;;5.30;100.00
39265;BME280;42646;51.910;7.724;2023-12-14T04:47:43;100585.06;;;5.29;100.00
39265;BME280;42646;51.910;7.724;2023-12-14T04:50:10;100586.84;;;5.29;100.00
39265;BME280;42646;51.910;7.724;2023-12-14T04:52:38;100587.69;;;5.29;100.00
39265;BME280;42646;51.910;7.724;2023-12-14T04:55:06;100591.28;;;5.28;100.00
39265;BME280;42646;51.910;7.724;2023-12-14T04:57:34;100593.09;;;5.28;100.00
39265;BME280;42646;51.910;7.724;2023-12-14T05:00:05;100600.13;;;5.27;100.00
39265;BME280;42646;51.910;7.724;2023-12-14T05:02:34;100606.34;;;5.26;100.00
39265;BME280;42646;51.910;7.724;2023-12-14T05:05:02;100609.94;;;5.25;100.00
39265;BME280;42646;51.910;7.724;2023-12-14T05:07:29;100611.03;;;5.23;100.00
39265;BME280;42646;51.910;7.724;2023-12-14T05:09:57;100617.25;;;5.22;100.00
39265;BME280;42646;51.910;7.724;2023-12-14T05:12:25;100616.38;;;5.21;100.00
39265;BME280;42646;51.910;7.724;2023-12-14T05:14:53;100633.06;;;5.22;100.00
39265;BME280;42646;51.910;7.724;2023-12-14T05:17:22;100632.13;;;5.23;100.00
39265;BME280;42646;51.910;7.724;2023-12-14T05:19:49;100629.56;;;5.21;100.00
39265;BME280;42646;51.910;7.724;2023-12-14T05:22:17;100631.34;;;5.21;100.00
39265;BME280;42646;51.910;7.724;2023-12-14T05:24:46;100625.25;;;5.20;100.00
39265;BME280;42646;51.910;7.724;2023-12-14T05:27:14;100635.06;;;5.18;100.00
39265;BME280;42646;51.910;7.724;2023-12-14T05:29:42;100642.13;;;5.18;100.00
39265;BME280;42646;51.910;7.724;2023-12-14T05:32:09;100640.53;;;5.15;100.00
39265;BME280;42646;51.910;7.724;2023-12-14T05:34:38;100644.88;;;5.16;100.00
39265;BME280;42646;51.910;7.724;2023-12-14T05:37:06;100647.41;;;5.18;100.00
39265;BME280;42646;51.910;7.724;2023-12-14T05:39:34;100650.16;;;5.16;100.00
39265;BME280;42646;51.910;7.724;2023-12-14T05:42:01;100649.28;;;5.16;100.00
39265;BME280;42646;51.910;7.724;2023-12-14T05:44:29;100659.81;;;5.16;100.00
39265;BME280;42646;51.910;7.724;2023-12-14T05:46:59;100654.56;;;5.16;100.00
39265;BME280;42646;51.910;7.724;2023-12-14T05:49:26;100664.25;;;5.15;100.00
39265;BME280;42646;51.910;7.724;2023-12-14T05:51:58;100671.31;;;5.15;100.00
39265;BME280;42646;51.910;7.724;2023-12-14T05:54:26;100669.66;;;5.14;100.00
39265;BME280;42646;51.910;7.724;2023-12-14T05:56:53;100672.28;;;5.14;100.00
39265;BME280;42646;51.910;7.724;2023-12-14T05:59:21;100684.63;;;5.13;100.00
39265;BME280;42646;51.910;7.724;2023-12-14T06:01:49;100677.66;;;5.12;100.00
39265;BME280;42646;51.910;7.724;2023-12-14T06:04:16;100678.63;;;5.11;100.00
39265;BME280;42646;51.910;7.724;2023-12-14T06:06:44;100680.31;;;5.12;100.00
39265;BME280;42646;51.910;7.724;2023-12-14T06:09:13;100679.47;;;5.12;100.00
39265;BME280;42646;51.910;7.724;2023-12-14T06:11:41;100684.63;;;5.13;100.00
39265;BME280;42646;51.910;7.724;2023-12-14T06:14:08;100693.59;;;5.11;100.00
39265;BME280;42646;51.910;7.724;2023-12-14T06:16:36;100698.88;;;5.11;100.00
39265;BME280;42646;51.910;7.724;2023-12-14T06:19:04;100697.91;;;5.12;100.00
39265;BME280;42646;51.910;7.724;2023-12-14T06:21:31;100706.78;;;5.11;100.00
39265;BME280;42646;51.910;7.724;2023-12-14T06:24:00;100711.22;;;5.10;100.00
39265;BME280;42646;51.910;7.724;2023-12-14T06:26:29;100726.09;;;5.11;100.00
39265;BME280;42646;51.910;7.724;2023-12-14T06:28:56;100728.78;;;5.09;100.00
39265;BME280;42646;51.910;7.724;2023-12-14T06:31:24;100735.69;;;5.12;100.00
39265;BME280;42646;51.910;7.724;2023-12-14T06:33:52;100739.69;;;5.05;100.00
39265;BME280;42646;51.910;7.724;2023-12-14T06:36:23;100740.50;;;5.05;100.00
39265;BME280;42646;51.910;7.724;2023-12-14T06:38:53;100746.75;;;5.04;100.00
39265;BME280;42646;51.910;7.724;2023-12-14T06:41:22;100757.19;;;5.06;100.00
39265;BME280;42646;51.910;7.724;2023-12-14T06:43:51;100768.84;;;5.02;100.00
39265;BME280;42646;51.910;7.724;2023-12-14T06:46:20;100780.47;;;4.99;100.00
39265;BME280;42646;51.910;7.724;2023-12-14T06:48:48;100776.97;;;4.99;100.00
39265;BME280;42646;51.910;7.724;2023-12-14T06:51:16;100789.22;;;5.00;100.00
39265;BME280;42646;51.910;7.724;2023-12-14T06:53:43;100790.91;;;5.01;100.00
39265;BME280;42646;51.910;7.724;2023-12-14T06:56:12;100794.50;;;5.00;100.00
39265;BME280;42646;51.910;7.724;2023-12-14T06:58:41;100803.25;;;5.00;100.00
39265;BME280;42646;51.910;7.724;2023-12-14T07:01:13;100798.91;;;4.99;100.00
39265;BME280;42646;51.910;7.724;2023-12-14T07:03:42;100807.84;;;4.97;100.00
39265;BME280;42646;51.910;7.724;2023-12-14T07:06:12;100809.53;;;4.98;100.00
39265;BME280;42646;51.910;7.724;2023-12-14T07:08:40;100819.16;;;4.99;100.00
39265;BME280;42646;51.910;7.724;2023-12-14T07:11:08;100814.75;;;4.99;100.00
39265;BME280;42646;51.910;7.724;2023-12-14T07:13:36;100818.22;;;5.00;100.00
39265;BME280;42646;51.910;7.724;2023-12-14T07:16:05;100822.53;;;5.01;100.00
39265;BME280;42646;51.910;7.724;2023-12-14T07:18:35;100830.44;;;5.01;100.00
39265;BME280;42646;51.910;7.724;2023-12-14T07:21:04;100835.72;;;5.01;100.00
39265;BME280;42646;51.910;7.724;2023-12-14T07:23:33;100841.09;;;4.99;100.00
39265;BME280;42646;51.910;7.724;2023-12-14T07:26:01;100849.00;;;4.99;100.00
39265;BME280;42646;51.910;7.724;2023-12-14T07:28:31;100854.28;;;4.99;100.00
39265;BME280;42646;51.910;7.724;2023-12-14T07:30:59;100862.94;;;5.01;100.00
39265;BME280;42646;51.910;7.724;2023-12-14T07:33:27;100868.31;;;5.00;100.00
39265;BME280;42646;51.910;7.724;2023-12-14T07:35:56;100874.31;;;5.02;100.00
39265;BME280;42646;51.910;7.724;2023-12-14T07:38:23;100869.16;;;5.00;100.00
39265;BME280;42646;51.910;7.724;2023-12-14T07:40:51;100881.38;;;5.01;100.00
39265;BME280;42646;51.910;7.724;2023-12-14T07:43:19;100891.09;;;5.01;100.00
39265;BME280;42646;51.910;7.724;2023-12-14T07:45:47;100883.28;;;4.99;100.00
39265;BME280;42646;51.910;7.724;2023-12-14T07:48:14;100893.84;;;4.99;100.00
39265;BME280;42646;51.910;7.724;2023-12-14T07:50:42;100903.44;;;5.00;100.00
39265;BME280;42646;51.910;7.724;2023-12-14T07:53:11;100900.22;;;4.95;100.00
39265;BME280;42646;51.910;7.724;2023-12-14T07:55:39;100906.72;;;4.90;100.00
39265;BME280;42646;51.910;7.724;2023-12-14T07:58:07;100911.72;;;4.94;100.00
39265;BME280;42646;51.910;7.724;2023-12-14T08:00:35;100923.59;;;4.87;100.00
39265;BME280;42646;51.910;7.724;2023-12-14T08:03:02;100929.88;;;4.85;100.00
39265;BME280;42646;51.910;7.724;2023-12-14T08:05:30;100932.63;;;4.83;100.00
39265;BME280;42646;51.910;7.724;2023-12-14T08:07:58;100938.00;;;4.81;100.00
39265;BME280;42646;51.910;7.724;2023-12-14T08:10:27;100939.78;;;4.81;100.00
39265;BME280;42646;51.910;7.724;2023-12-14T08:12:55;100942.44;;;4.81;100.00
39265;BME280;42646;51.910;7.724;2023-12-14T08:15:22;100951.19;;;4.81;100.00
39265;BME280;42646;51.910;7.724;2023-12-14T08:17:50;100953.81;;;4.81;100.00
39265;BME280;42646;51.910;7.724;2023-12-14T08:20:17;100954.84;;;4.79;100.00
39265;BME280;42646;51.910;7.724;2023-12-14T08:22:45;100952.31;;;4.77;100.00
39265;BME280;42646;51.910;7.724;2023-12-14T08:25:14;100957.56;;;4.77;100.00
39265;BME280;42646;51.910;7.724;2023-12-14T08:27:43;100963.69;;;4.78;100.00
39265;BME280;42646;51.910;7.724;2023-12-14T08:30:12;100956.72;;;4.77;100.00
39265;BME280;42646;51.910;7.724;2023-12-14T08:32:40;100976.88;;;4.78;100.00
39265;BME280;42646;51.910;7.724;2023-12-14T08:35:08;100971.50;;;4.79;100.00
39265;BME280;42646;51.910;7.724;2023-12-14T08:37:36;100985.50;;;4.80;100.00
39265;BME280;42646;51.910;7.724;2023-12-14T08:40:05;100982.13;;;4.78;100.00
39265;BME280;42646;51.910;7.724;2023-12-14T08:42:33;101001.53;;;4.77;100.00
39265;BME280;42646;51.910;7.724;2023-12-14T08:45:04;101006.91;;;4.75;100.00
39265;BME280;42646;51.910;7.724;2023-12-14T08:47:34;101014.97;;;4.72;100.00
39265;BME280;42646;51.910;7.724;2023-12-14T08:50:02;101009.81;;;4.71;100.00
39265;BME280;42646;51.910;7.724;2023-12-14T08:52:31;101015.94;;;4.71;100.00
39265;BME280;42646;51.910;7.724;2023-12-14T08:54:59;101017.72;;;4.71;100.00
39265;BME280;42646;51.910;7.724;2023-12-14T08:57:28;101020.63;;;4.66;100.00
39265;BME280;42646;51.910;7.724;2023-12-14T08:59:55;101024.94;;;4.67;100.00
39265;BME280;42646;51.910;7.724;2023-12-14T09:02:24;101034.53;;;4.68;100.00
39265;BME280;42646;51.910;7.724;2023-12-14T09:04:52;101040.84;;;4.66;100.00
39265;BME280;42646;51.910;7.724;2023-12-14T09:07:20;101039.25;;;4.63;100.00
39265;BME280;42646;51.910;7.724;2023-12-14T09:09:48;101043.59;;;4.64;100.00
39265;BME280;42646;51.910;7.724;2023-12-14T09:12:15;101054.97;;;4.65;100.00
39265;BME280;42646;51.910;7.724;2023-12-14T09:14:43;101059.31;;;4.66;100.00
39265;BME280;42646;51.910;7.724;2023-12-14T09:17:11;101064.56;;;4.66;100.00
39265;BME280;42646;51.910;7.724;2023-12-14T09:19:40;101077.75;;;4.66;100.00
39265;BME280;42646;51.910;7.724;2023-12-14T09:22:07;101078.50;;;4.68;100.00
39265;BME280;42646;51.910;7.724;2023-12-14T09:24:35;101087.34;;;4.67;100.00
39265;BME280;42646;51.910;7.724;2023-12-14T09:27:04;101095.25;;;4.67;100.00
39265;BME280;42646;51.910;7.724;2023-12-14T09:29:31;101095.34;;;4.65;100.00
39265;BME280;42646;51.910;7.724;2023-12-14T09:31:59;101089.22;;;4.65;100.00
39265;BME280;42646;51.910;7.724;2023-12-14T09:34:27;101091.88;;;4.65;100.00
39265;BME280;42646;51.910;7.724;2023-12-14T09:36:56;101098.94;;;4.64;100.00
39265;BME280;42646;51.910;7.724;2023-12-14T09:39:23;101099.66;;;4.66;100.00
39265;BME280;42646;51.910;7.724;2023-12-14T09:41:51;101106.84;;;4.64;100.00
39265;BME280;42646;51.910;7.724;2023-12-14T09:44:19;101110.22;;;4.66;100.00
39265;BME280;42646;51.910;7.724;2023-12-14T09:46:47;101114.63;;;4.66;100.00
39265;BME280;42646;51.910;7.724;2023-12-14T09:49:16;101110.31;;;4.65;100.00
39265;BME280;42646;51.910;7.724;2023-12-14T09:51:45;101111.25;;;4.64;100.00
39265;BME280;42646;51.910;7.724;2023-12-14T09:54:14;101117.38;;;4.64;100.00
39265;BME280;42646;51.910;7.724;2023-12-14T09:56:46;101121.84;;;4.62;100.00
39265;BME280;42646;51.910;7.724;2023-12-14T09:59:14;101112.19;;;4.63;100.00
39265;BME280;42646;51.910;7.724;2023-12-14T10:01:42;101110.31;;;4.65;100.00
39265;BME280;42646;51.910;7.724;2023-12-14T10:04:13;101126.88;;;4.67;100.00
39265;BME280;42646;51.910;7.724;2023-12-14T10:06:43;101123.28;;;4.68;100.00
39265;BME280;42646;51.910;7.724;2023-12-14T10:09:11;101130.28;;;4.69;100.00
39265;BME280;42646;51.910;7.724;2023-12-14T10:11:43;101133.66;;;4.71;100.00
39265;BME280;42646;51.910;7.724;2023-12-14T10:14:19;101136.41;;;4.69;100.00
39265;BME280;42646;51.910;7.724;2023-12-14T10:16:48;101145.91;;;4.72;100.00
39265;BME280;42646;51.910;7.724;2023-12-14T10:19:18;101146.75;;;4.72;100.00
39265;BME280;42646;51.910;7.724;2023-12-14T10:21:47;101149.28;;;4.74;100.00
39265;BME280;42646;51.910;7.724;2023-12-14T10:24:16;101153.81;;;4.72;100.00
39265;BME280;42646;51.910;7.724;2023-12-14T10:26:47;101159.00;;;4.73;100.00
39265;BME280;42646;51.910;7.724;2023-12-14T10:29:15;101158.13;;;4.73;100.00
39265;BME280;42646;51.910;7.724;2023-12-14T10:31:43;101165.28;;;4.71;100.00
39265;BME280;42646;51.910;7.724;2023-12-14T10:34:11;101162.81;;;4.68;100.00
39265;BME280;42646;51.910;7.724;2023-12-14T10:36:40;101165.28;;;4.71;100.00
39265;BME280;42646;51.910;7.724;2023-12-14T10:39:14;101170.47;;;4.72;100.00
39265;BME280;42646;51.910;7.724;2023-12-14T10:41:43;101173.78;;;4.76;100.00
39265;BME280;42646;51.910;7.724;2023-12-14T10:44:25;101172.94;;;4.75;100.00
39265;BME280;42646;51.910;7.724;2023-12-14T10:47:13;101177.28;;;4.76;100.00
39265;BME280;42646;51.910;7.724;2023-12-14T10:49:43;101178.88;;;4.79;100.00
39265;BME280;42646;51.910;7.724;2023-12-14T10:52:15;101179.66;;;4.81;100.00
39265;BME280;42646;51.910;7.724;2023-12-14T10:54:44;101185.78;;;4.81;100.00
39265;BME280;42646;51.910;7.724;2023-12-14T10:57:13;101189.84;;;4.87;100.00
39265;BME280;42646;51.910;7.724;2023-12-14T10:59:43;101183.78;;;4.85;100.00
39265;BME280;42646;51.910;7.724;2023-12-14T11:02:10;101192.53;;;4.86;100.00
39265;BME280;42646;51.910;7.724;2023-12-14T11:04:54;101191.63;;;4.87;100.00
39265;BME280;42646;51.910;7.724;2023-12-14T11:07:47;101194.28;;;4.87;100.00
39265;BME280;42646;51.910;7.724;2023-12-14T11:10:20;101202.09;;;4.88;100.00
39265;BME280;42646;51.910;7.724;2023-12-14T11:12:57;101211.59;;;4.91;100.00
39265;BME280;42646;51.910;7.724;2023-12-14T11:15:29;101207.16;;;4.91;100.00
39265;BME280;42646;51.910;7.724;2023-12-14T11:18:24;101211.41;;;4.94;100.00
39265;BME280;42646;51.910;7.724;2023-12-14T11:20:55;101222.63;;;4.97;100.00
39265;BME280;42646;51.910;7.724;2023-12-14T11:23:29;101225.19;;;4.99;100.00
39265;BME280;42646;51.910;7.724;2023-12-14T11:25:58;101226.88;;;5.00;100.00
39265;BME280;42646;51.910;7.724;2023-12-14T11:28:27;101231.22;;;5.01;100.00
39265;BME280;42646;51.910;7.724;2023-12-14T11:30:57;101239.13;;;5.01;100.00
39265;BME280;42646;51.910;7.724;2023-12-14T11:33:25;101241.06;;;4.97;100.00
39265;BME280;42646;51.910;7.724;2023-12-14T11:35:55;101237.69;;;4.95;100.00
39265;BME280;42646;51.910;7.724;2023-12-14T11:38:24;101237.59;;;4.97;100.00
39265;BME280;42646;51.910;7.724;2023-12-14T11:40:52;101246.19;;;5.00;100.00
39265;BME280;42646;51.910;7.724;2023-12-14T11:43:19;101253.16;;;5.01;100.00
39265;BME280;42646;51.910;7.724;2023-12-14T11:45:48;101254.75;;;5.04;100.00
39265;BME280;42646;51.910;7.724;2023-12-14T11:48:18;101258.34;;;5.03;100.00
39265;BME280;42646;51.910;7.724;2023-12-14T11:50:47;101261.81;;;5.03;100.00
39265;BME280;42646;51.910;7.724;2023-12-14T11:53:15;101259.19;;;5.03;100.00
39265;BME280;42646;51.910;7.724;2023-12-14T11:55:44;101259.19;;;5.03;100.00
39265;BME280;42646;51.910;7.724;2023-12-14T11:58:13;101256.47;;;5.05;100.00
39265;BME280;42646;51.910;7.724;2023-12-14T12:00:44;101256.47;;;5.05;100.00
39265;BME280;42646;51.910;7.724;2023-12-14T12:03:14;101258.94;;;5.08;100.00
39265;BME280;42646;51.910;7.724;2023-12-14T12:05:45;101257.97;;;5.09;100.00
39265;BME280;42646;51.910;7.724;2023-12-14T12:08:14;101264.09;;;5.09;100.00
39265;BME280;42646;51.910;7.724;2023-12-14T12:10:43;101264.09;;;5.09;100.00
39265;BME280;42646;51.910;7.724;2023-12-14T12:13:13;101268.72;;;5.06;100.00
39265;BME280;42646;51.910;7.724;2023-12-14T12:15:41;101268.53;;;5.09;100.00
39265;BME280;42646;51.910;7.724;2023-12-14T12:18:10;101275.44;;;5.12;100.00
39265;BME280;42646;51.910;7.724;2023-12-14T12:20:38;101271.09;;;5.11;100.00
39265;BME280;42646;51.910;7.724;2023-12-14T12:23:08;101264.97;;;5.10;100.00
39265;BME280;42646;51.910;7.724;2023-12-14T12:25:35;101265.84;;;5.11;100.00
39265;BME280;42646;51.910;7.724;2023-12-14T12:28:03;101262.25;;;5.12;100.00
39265;BME280;42646;51.910;7.724;2023-12-14T12:30:31;101254.16;;;5.15;100.00
39265;BME280;42646;51.910;7.724;2023-12-14T12:33:03;101253.19;;;5.16;100.00
39265;BME280;42646;51.910;7.724;2023-12-14T12:35:31;101259.16;;;5.19;100.00
39265;BME280;42646;51.910;7.724;2023-12-14T12:38:00;101258.31;;;5.19;100.00
39265;BME280;42646;51.910;7.724;2023-12-14T12:40:29;101250.31;;;5.20;100.00
39265;BME280;42646;51.910;7.724;2023-12-14T12:42:59;101252.00;;;5.21;100.00
39265;BME280;42646;51.910;7.724;2023-12-14T12:45:27;101250.13;;;5.23;100.00
39265;BME280;42646;51.910;7.724;2023-12-14T12:47:55;101258.91;;;5.24;100.00
39265;BME280;42646;51.910;7.724;2023-12-14T12:50:23;101261.53;;;5.24;100.00
39265;BME280;42646;51.910;7.724;2023-12-14T12:52:51;101254.47;;;5.24;100.00
39265;BME280;42646;51.910;7.724;2023-12-14T12:55:19;101267.66;;;5.24;100.00
39265;BME280;42646;51.910;7.724;2023-12-14T12:57:49;101272.75;;;5.27;100.00